Observations de surface / Québec / CYUL (71627)

Québec | Canada | États-Unis | France | UK | Europe | Ailleurs

Affichage: Infos & localisation pour CYUL (71627) | Aide pour décoder les METARs

CYUL MONTREAL INTL A QB CN
Raw surface observations for station CYUL
CYUL 181348Z 02013KT 3SM -SN OVC007 M03/M05 A2993 RMK SN1SF7 SLP139=
CYUL 181300Z 04013KT 1 1/2SM -SN OVC009 M04/M05 A2993 RMK SN2SC6 SLP139=
CYUL 181234Z 03014KT 1 1/4SM -SN OVC008 M04/M05 A2994 RMK SN2SC6 SLP141=
CYUL 181200Z 03013KT 2 1/2SM -SN OVC009 M04/M05 A2994 RMK SC8 /S03/ SLP141=
CYUL 181100Z 03014KT 2SM -SN BKN009 OVC014 M04/M05 A2993 RMK SC6SC2 SLP140=
CYUL 181000Z 03014KT 3SM -SN DRSN BKN009 OVC018 M04/M06 A2993 RMK SC6SC2 SLP139=
CYUL 180900Z 03016KT 4SM -SN DRSN BKN009 OVC016 M04/M06 A2993 RMK SC6SC2 /S02/ SLP139=
CYUL 180800Z 03013KT 3SM -SN DRSN OVC009 M05/M06 A2994 RMK SC8 SLP141=
CYUL 180745Z 03014KT 2SM -SN DRSN BKN009 OVC014 M05/M06 A2995 RMK SC5SC3 SLP145=
CYUL 180700Z 03014KT 3SM -SN DRSN BKN009 OVC015 M05/M07 A2996 RMK SC6SC2 /S01/ SLP148=
CYUL 180638Z 03014G20KT 2SM -SN DRSN BKN010 OVC015 M05/M07 A2996 RMK SC7SC1 SLP150=
CYUL 180624Z 03016KT 1 1/4SM -SN DRSN BKN010 OVC015 M05/M07 A2997 RMK SC6SC2 SLP152=
CYUL 180600Z 03015KT 2SM -SN DRSN BKN012 OVC018 M05/M07 A2997 RMK SC6SC2 SLP153=
CYUL 180509Z 04017KT 2SM -SN DRSN BKN014 OVC020 M05/M07 A2999 RMK SC6SC2 SLP158=
CYUL 180500Z 04015KT 4SM -SN DRSN BKN013 OVC020 M05/M07 A2999 RMK SC7SC1 /S01/ SLP159=
CYUL 180442Z 04018KT 4SM -SN DRSN BKN013 OVC020 M05/M08 A3000 RMK SC6SC2 SLP161=
CYUL 180400Z 04017G22KT 3SM -SN DRSN BKN015 OVC020 M05/M08 A3001 RMK SC7SC1 SLP167=
CYUL 180339Z 04019KT 2SM -SN DRSN BKN018 OVC028 M05/M09 A3002 RMK SC6SC2 SLP168=
CYUL 180300Z 05016G22KT 15SM -SN BKN032 OVC050 M04/M10 A3003 RMK SC6SC2 SLP173=
CYUL 180246Z 05015G21KT 15SM -SN BKN034 OVC055 M04/M09 A3003 RMK SC5SC3 SLP174=
CYUL 180200Z 04013G19KT 15SM SCT047 OVC100 M03/M09 A3003 RMK SC3AC5 SLP172=
CYUL 180100Z 03014G20KT 15SM OVC080 M03/M08 A3004 RMK AC8 SLP177=
CYUL 180000Z 04016G21KT 15SM OVC110 M03/M08 A3005 RMK AC8 SLP181=
CYUL 172300Z 05016G21KT 15SM OVC140 M03/M08 A3008 RMK AC8 SLP190=
CYUL 172200Z 04014G20KT 15SM OVC210 M03/M08 A3011 RMK CS8 SLP200=
CYUL 172100Z 04014G19KT 15SM OVC190 M02/M07 A3014 RMK CS8 SLP210=
CYUL 172000Z 05014KT 15SM FEW150 OVC210 M02/M07 A3014 RMK AC1CS7 SLP210=
CYUL 171900Z 05014KT 15SM FEW030 SCT150 OVC220 M01/M07 A3017 RMK SC1AC2CS5 SLP221=
CYUL 171800Z 05015KT 15SM FEW030 BKN220 M01/M07 A3019 RMK SC2CI5 CC ASOCT PRESFR SLP226=
CYUL 171700Z 05011KT 15SM BKN033 OVC120 M01/M07 A3022 RMK SC7AC1 SLP238=
CYUL 171600Z 05011KT 15SM OVC033 M01/M07 A3024 RMK SC8 SLP243=
CYUL 171500Z 06012G18KT 15SM OVC034 M01/M06 A3026 RMK SC8 SLP249=
CYUL 171400Z 06009KT 15SM OVC035 M01/M05 A3026 RMK SC8 SLP250=
CYUL 171300Z 03004KT 10SM OVC035 M03/M05 A3026 RMK SC8 SLP251=